Accueil
METAR-TAF:

METAR-TAF

Aéroports :

Anatom, Vanuatu

latitude: 20-14-57S, longitude: 169-46-17E, altitude: 2 m

Observation

Le bulletin a été fait il y a 1 heure et 1 minutes, à 06:00 UTC
Vent 4 kt de sud
Température 24°C
Humidité 74%
Pression 1017 hPa
Visibilité 10 km ou plus
Nuages fragmentés à une hauteur de 2000 ft

METAR: NVVA 270600Z 18004KT 9999 BKN020 24/19 Q1017 RMK NIL

Heure: 18:01 (07:01 UTC)

Prévision

Le bulletin a été fait il y a 2 heures et 31 minutes, à 04:30 UTC
Prévision valable du 27 à 06 UTC au 28 à 06 UTC
Vent 12 kt de sud-est
Visibilité 10 km ou plus
Nuages épars à une hauteur de 2000 ft
Evoluant progressivement
du 27 à 07 UTC au 27 à 09 UTC
Vent 5 kt de sud-est

TAF: NVVA 270430Z 2706/2806 13012KT 9999 SCT020 BECMG 2707/2709 13005KT

Observations et prévisions météorologiques de plus de 4000 aéroports (messages METAR et TAF).

Les stations disponibles sont représentées par des disques jaunes et rouges sur la carte.

Passer la souris dessus pour voir le nom de la station.

Cliquer dessus pour voir les observations et prévisions météorologiques.

Pour changer de carte: cliquez sur les boutons verts avec une croix noire pour zoomer, sur le bouton vert avec un tiret pour effectuer un zoom arrière, ou sur les flèches vertes pour les cartes adjacentes.


METAR-TAF: